Time;durP1;ratioP1;P1;durP2;ratioP2;P2;SDS_P1;SDS_P2;PMS_P1;PMS_P2;Temp;Humidity;BMP_temperature;BMP_pressure;BME280_temperature;BME280_humidity;BME280_pressure;Samples;Min_cycle;Max_cycle;Signal;HPM_P1;HPM_P2
2023/05/27 00:00:33;;;;;;;;;;;;;;;21.68;43.05;103019.00;5057323;28;19980;-71
2023/05/27 00:03:00;;;;;;;;;;;;;;;21.68;42.87;103020.84;5051522;28;19980;-71
2023/05/27 00:05:25;;;;;;;;;;;;;;;21.68;43.11;103021.72;5035220;28;19913;-71
2023/05/27 00:07:51;;;;;;;;;;;;;;;21.66;43.05;103018.28;5039913;28;19948;-71
2023/05/27 00:10:16;;;;;;;;;;;;;;;21.66;42.69;103014.69;5049269;28;19944;-71
2023/05/27 00:12:41;;;;;;;;;;;;;;;21.66;42.77;103015.59;5031455;28;20394;-71
2023/05/27 00:15:07;;;;;;;;;;;;;;;21.65;42.72;103004.88;5047217;28;19919;-71
2023/05/27 00:17:33;;;;;;;;;;;;;;;21.64;42.70;103005.88;5032670;28;19979;-71
2023/05/27 00:20:04;;;;;;;;;;;;;;;21.63;42.81;103007.72;5051907;28;19917;-72
2023/05/27 00:22:32;;;;;;;;;;;;;;;21.62;43.05;103005.13;5063123;28;19924;-71
2023/05/27 00:24:57;;;;;;;;;;;;;;;21.61;42.74;103003.44;5056770;28;19960;-71
2023/05/27 00:27:22;;;;;;;;;;;;;;;21.61;42.71;103003.44;5058178;28;19928;-72
2023/05/27 00:29:47;;;;;;;;;;;;;;;21.61;42.64;103003.44;5056690;28;19913;-71
2023/05/27 00:32:12;;;;;;;;;;;;;;;21.59;42.79;103002.72;5052342;28;19939;-71
2023/05/27 00:34:38;;;;;;;;;;;;;;;21.59;42.72;103005.44;5056882;28;19917;-71
2023/05/27 00:37:04;;;;;;;;;;;;;;;21.58;42.80;103004.56;5051929;28;19923;-71
2023/05/27 00:39:29;;;;;;;;;;;;;;;21.58;42.87;102998.28;5051083;28;20008;-71
2023/05/27 00:41:55;;;;;;;;;;;;;;;21.56;42.60;102993.00;5053201;28;20004;-71
2023/05/27 00:44:20;;;;;;;;;;;;;;;21.56;42.60;103001.13;5054009;28;19933;-71
2023/05/27 00:46:45;;;;;;;;;;;;;;;21.55;42.57;102998.56;5051218;28;19928;-71
2023/05/27 00:49:11;;;;;;;;;;;;;;;21.54;42.81;102991.44;5021998;28;19936;-71
2023/05/27 00:51:36;;;;;;;;;;;;;;;21.53;42.58;102987.00;5053672;28;19917;-71
2023/05/27 00:54:02;;;;;;;;;;;;;;;21.53;42.70;102985.16;5048154;28;19918;-71
2023/05/27 00:56:27;;;;;;;;;;;;;;;21.51;42.53;102980.88;5058591;28;19936;-71
2023/05/27 00:58:52;;;;;;;;;;;;;;;21.52;42.85;102979.88;5051220;28;19916;-71
2023/05/27 01:01:19;;;;;;;;;;;;;;;21.51;42.88;102978.19;5040083;28;19913;-71
2023/05/27 01:03:44;;;;;;;;;;;;;;;21.50;42.59;102979.19;5034744;28;19976;-70
2023/05/27 01:06:28;;;;;;;;;;;;;;;21.48;42.90;102973.88;5050912;28;19918;-71
2023/05/27 01:08:59;;;;;;;;;;;;;;;21.48;42.65;102970.31;5054102;28;19917;-71
2023/05/27 01:11:32;;;;;;;;;;;;;;;21.47;42.80;102977.59;5052548;28;19916;-71
2023/05/27 01:14:03;;;;;;;;;;;;;;;21.45;42.74;102971.44;5051554;28;19913;-71
2023/05/27 01:16:30;;;;;;;;;;;;;;;21.44;42.66;102967.03;5052268;28;19931;-71
2023/05/27 01:18:56;;;;;;;;;;;;;;;21.44;42.87;102976.00;5052060;28;19972;-71
2023/05/27 01:21:24;;;;;;;;;;;;;;;21.43;42.67;102974.28;5046614;28;19928;-71
2023/05/27 01:23:50;;;;;;;;;;;;;;;21.42;42.75;102974.44;5040163;28;19916;-71
2023/05/27 01:26:15;;;;;;;;;;;;;;;21.40;42.69;102969.16;5050410;28;20456;-70
2023/05/27 01:28:41;;;;;;;;;;;;;;;21.40;42.55;102971.00;5060802;28;19917;-71
2023/05/27 01:31:13;;;;;;;;;;;;;;;21.39;42.75;102972.00;5032182;28;19917;-71
2023/05/27 01:33:39;;;;;;;;;;;;;;;21.37;42.73;102963.16;5052293;28;19920;-71
2023/05/27 01:36:05;;;;;;;;;;;;;;;21.37;42.59;102968.59;5022966;28;19917;-71
2023/05/27 01:38:31;;;;;;;;;;;;;;;21.36;42.80;102967.69;5033335;28;19958;-71
2023/05/27 01:40:56;;;;;;;;;;;;;;;21.34;42.52;102969.69;5046933;28;20007;-70
2023/05/27 01:43:21;;;;;;;;;;;;;;;21.34;42.54;102966.13;5051227;28;19923;-70
2023/05/27 01:45:46;;;;;;;;;;;;;;;21.34;42.80;102968.84;5033948;28;19940;-71
2023/05/27 01:48:12;;;;;;;;;;;;;;;21.31;42.58;102964.50;5045137;28;19913;-70
2023/05/27 01:50:37;;;;;;;;;;;;;;;21.31;42.83;102966.38;5058613;28;19921;-70
2023/05/27 01:53:03;;;;;;;;;;;;;;;21.30;42.77;102968.22;5050601;28;19953;-71
2023/05/27 01:55:28;;;;;;;;;;;;;;;21.28;42.51;102970.22;5042071;28;20380;-71
2023/05/27 01:57:53;;;;;;;;;;;;;;;21.28;42.62;102966.63;5035832;28;19976;-71
2023/05/27 02:00:18;;;;;;;;;;;;;;;21.28;42.67;102972.03;5041009;28;20486;-71
2023/05/27 02:02:44;;;;;;;;;;;;;;;21.25;42.47;102962.38;5053822;28;19913;-71
2023/05/27 02:05:09;;;;;;;;;;;;;;;21.25;42.71;102975.03;5032755;28;19924;-71
2023/05/27 02:07:34;;;;;;;;;;;;;;;21.23;42.52;102972.44;5050507;28;19916;-70
2023/05/27 02:09:59;;;;;;;;;;;;;;;21.22;42.72;102971.59;5035300;28;19959;-71
2023/05/27 02:12:25;;;;;;;;;;;;;;;21.22;42.68;102974.28;5052920;28;20003;-71
2023/05/27 02:14:51;;;;;;;;;;;;;;;21.20;42.54;102962.75;5032993;28;20423;-70
2023/05/27 02:17:16;;;;;;;;;;;;;;;21.19;42.78;102965.59;5053186;28;19942;-71
2023/05/27 02:19:41;;;;;;;;;;;;;;;21.18;42.49;102970.16;5053140;28;19913;-71
2023/05/27 02:22:07;;;;;;;;;;;;;;;21.18;42.66;102963.88;5047878;28;19931;-71
2023/05/27 02:24:32;;;;;;;;;;;;;;;21.16;42.48;102972.13;5037752;28;19950;-71
2023/05/27 02:26:57;;;;;;;;;;;;;;;21.15;42.61;102973.13;5032437;28;19923;-71
2023/05/27 02:29:23;;;;;;;;;;;;;;;21.15;42.68;102977.66;5035729;28;20305;-70
2023/05/27 02:31:48;;;;;;;;;;;;;;;21.14;42.38;102979.50;5048599;28;19913;-71
2023/05/27 02:34:13;;;;;;;;;;;;;;;21.13;42.70;102968.84;5048534;28;19944;-71
2023/05/27 02:36:38;;;;;;;;;;;;;;;21.12;42.38;102967.13;5051803;28;19943;-70
2023/05/27 02:39:04;;;;;;;;;;;;;;;21.10;42.43;102967.25;5051680;28;19917;-71
2023/05/27 02:41:29;;;;;;;;;;;;;;;21.09;42.58;102964.69;5049831;28;19912;-71
2023/05/27 02:43:54;;;;;;;;;;;;;;;21.08;42.42;102963.84;5050437;28;19924;-71
2023/05/27 02:46:19;;;;;;;;;;;;;;;21.08;42.44;102979.22;5034374;28;19921;-71
2023/05/27 02:48:45;;;;;;;;;;;;;;;21.06;42.41;102967.66;5050585;28;19913;-71
2023/05/27 02:51:11;;;;;;;;;;;;;;;21.06;42.67;102973.06;5057111;28;19924;-71
2023/05/27 02:53:36;;;;;;;;;;;;;;;21.04;42.64;102975.91;5049128;28;20381;-70
2023/05/27 02:56:01;;;;;;;;;;;;;;;21.03;42.62;102974.19;5045231;28;20444;-70
2023/05/27 02:58:26;;;;;;;;;;;;;;;21.02;42.62;102961.63;5050688;28;19936;-70
2023/05/27 03:00:51;;;;;;;;;;;;;;;21.01;42.66;102967.19;5049138;28;19913;-71
2023/05/27 03:03:17;;;;;;;;;;;;;;;20.99;42.44;102964.63;5051344;28;19937;-71
2023/05/27 03:05:42;;;;;;;;;;;;;;;20.99;42.46;102961.06;5048750;28;19917;-71
2023/05/27 03:08:07;;;;;;;;;;;;;;;20.97;42.64;102959.34;5029555;28;19917;-71
2023/05/27 03:10:32;;;;;;;;;;;;;;;20.96;42.62;102957.63;5048145;28;19917;-71
2023/05/27 03:12:58;;;;;;;;;;;;;;;20.96;42.40;102956.78;5054104;28;19932;-71
2023/05/27 03:15:23;;;;;;;;;;;;;;;20.94;42.36;102958.75;5042606;28;19917;-71
2023/05/27 03:17:48;;;;;;;;;;;;;;;20.92;42.68;102958.88;5054327;28;19928;-71
2023/05/27 03:20:13;;;;;;;;;;;;;;;20.92;42.32;102967.00;5038856;28;20396;-71
2023/05/27 03:22:38;;;;;;;;;;;;;;;20.90;42.58;102954.63;5054818;28;19956;-72
2023/05/27 03:25:04;;;;;;;;;;;;;;;20.91;42.37;102964.44;5053669;28;19913;-72
2023/05/27 03:27:29;;;;;;;;;;;;;;;20.89;42.33;102961.84;5049695;28;19916;-72
2023/05/27 03:29:55;;;;;;;;;;;;;;;20.88;42.59;102954.72;5050139;28;19913;-72
2023/05/27 03:32:20;;;;;;;;;;;;;;;20.88;42.47;102945.75;5029419;28;19948;-72
2023/05/27 03:34:45;;;;;;;;;;;;;;;20.86;42.20;102951.31;5050376;28;20358;-72
2023/05/27 03:37:10;;;;;;;;;;;;;;;20.85;42.56;102948.72;5049717;28;19917;-71
2023/05/27 03:39:36;;;;;;;;;;;;;;;20.84;42.35;102958.69;5051812;28;19913;-71
2023/05/27 03:42:01;;;;;;;;;;;;;;;20.84;42.28;102960.53;5047425;28;19984;-71
2023/05/27 03:44:26;;;;;;;;;;;;;;;20.83;42.33;102956.97;5030044;28;19972;-71
2023/05/27 03:46:51;;;;;;;;;;;;;;;20.81;42.30;102953.53;5052477;28;19917;-71
2023/05/27 03:49:16;;;;;;;;;;;;;;;20.81;42.39;102955.38;5051807;28;19917;-70
2023/05/27 03:51:42;;;;;;;;;;;;;;;20.79;42.50;102952.81;5038719;28;19917;-71
2023/05/27 03:54:07;;;;;;;;;;;;;;;20.79;42.34;102949.25;5031739;28;19962;-70
2023/05/27 03:56:32;;;;;;;;;;;;;;;20.78;42.52;102945.72;5055248;28;20054;-71
2023/05/27 03:58:57;;;;;;;;;;;;;;;20.77;42.59;102949.38;5053532;28;19975;-71
2023/05/27 04:01:22;;;;;;;;;;;;;;;20.76;42.40;102944.97;5054193;28;19917;-72
2023/05/27 04:03:48;;;;;;;;;;;;;;;20.75;42.40;102940.56;5048892;28;20369;-70
2023/05/27 04:06:13;;;;;;;;;;;;;;;20.74;42.35;102940.69;5035998;28;19963;-71
2023/05/27 04:08:40;;;;;;;;;;;;;;;20.74;42.55;102946.09;5052022;28;19967;-71
2023/05/27 04:11:05;;;;;;;;;;;;;;;20.73;42.32;102942.53;5053591;28;20348;-71
2023/05/27 04:13:31;;;;;;;;;;;;;;;20.71;42.49;102933.69;5058059;28;20370;-71
2023/05/27 04:15:57;;;;;;;;;;;;;;;20.70;42.52;102938.25;5032829;28;19925;-70
2023/05/27 04:18:22;;;;;;;;;;;;;;;20.70;42.49;102945.50;5043717;28;19913;-71
2023/05/27 04:20:50;;;;;;;;;;;;;;;20.69;42.34;102941.09;5052651;28;20292;-71
2023/05/27 04:23:15;;;;;;;;;;;;;;;20.69;42.55;102941.09;5041317;28;20278;-72
2023/05/27 04:25:40;;;;;;;;;;;;;;;20.67;42.29;102933.09;5041394;28;19917;-71
2023/05/27 04:28:06;;;;;;;;;;;;;;;20.66;42.23;102936.78;5052497;28;19924;-71
2023/05/27 04:30:32;;;;;;;;;;;;;;;20.65;42.38;102937.78;5035015;28;20493;-71
2023/05/27 04:32:58;;;;;;;;;;;;;;;20.65;42.55;102931.53;5038869;28;20263;-72
2023/05/27 04:35:23;;;;;;;;;;;;;;;20.64;42.37;102930.66;5055304;28;19924;-72
2023/05/27 04:37:48;;;;;;;;;;;;;;;20.63;42.20;102926.22;5052238;28;19940;-71
2023/05/27 04:40:13;;;;;;;;;;;;;;;20.62;42.46;102924.53;5056952;28;19912;-71
2023/05/27 04:42:39;;;;;;;;;;;;;;;20.63;42.15;102922.69;5045530;28;19923;-70
2023/05/27 04:45:05;;;;;;;;;;;;;;;20.61;42.16;102914.72;5062400;28;19932;-71
2023/05/27 04:47:31;;;;;;;;;;;;;;;20.61;42.22;102921.97;5043233;28;19917;-71
2023/05/27 04:49:56;;;;;;;;;;;;;;;20.59;42.24;102924.78;5051577;28;19947;-70
2023/05/27 04:52:23;;;;;;;;;;;;;;;20.59;42.15;102930.19;5038604;28;19917;-71
2023/05/27 04:54:48;;;;;;;;;;;;;;;20.59;42.49;102923.94;5051703;28;19913;-71
2023/05/27 04:57:18;;;;;;;;;;;;;;;20.58;42.23;102924.94;5052251;28;19948;-71
2023/05/27 04:59:58;;;;;;;;;;;;;;;20.58;42.37;102924.94;5058470;28;19992;-71
2023/05/27 05:02:27;;;;;;;;;;;;;;;20.57;42.45;102926.78;5055289;28;19917;-71
2023/05/27 05:04:52;;;;;;;;;;;;;;;20.57;42.34;102917.81;5033349;28;19956;-70
2023/05/27 05:07:19;;;;;;;;;;;;;;;20.56;42.43;102916.97;5057230;28;19917;-70
2023/05/27 05:09:44;;;;;;;;;;;;;;;20.56;42.23;102921.47;5043969;28;20359;-71
2023/05/27 05:12:09;;;;;;;;;;;;;;;20.55;42.10;102928.72;5059917;28;19916;-71
2023/05/27 05:14:34;;;;;;;;;;;;;;;20.54;42.39;102924.31;5056984;28;20305;-70
2023/05/27 05:17:00;;;;;;;;;;;;;;;20.54;42.42;102928.88;5051074;28;20712;-70
2023/05/27 05:19:25;;;;;;;;;;;;;;;20.53;42.49;102929.88;5057871;28;19940;-71
2023/05/27 05:21:50;;;;;;;;;;;;;;;20.53;42.18;102927.16;5052261;28;19913;-71
2023/05/27 05:24:16;;;;;;;;;;;;;;;20.52;42.45;102918.22;5038740;28;19913;-70
2023/05/27 05:26:41;;;;;;;;;;;;;;;20.52;42.28;102920.91;5050759;28;19975;-71
2023/05/27 05:29:06;;;;;;;;;;;;;;;20.52;42.15;102917.31;5053787;28;19964;-70
2023/05/27 05:31:31;;;;;;;;;;;;;;;20.51;42.33;102913.75;5050778;28;19917;-71
2023/05/27 05:33:56;;;;;;;;;;;;;;;20.51;42.29;102902.09;5054646;28;19964;-71
2023/05/27 05:36:22;;;;;;;;;;;;;;;20.50;42.33;102914.75;5043296;28;20015;-71
2023/05/27 05:38:47;;;;;;;;;;;;;;;20.49;42.38;102914.91;5052683;28;19919;-71
2023/05/27 05:41:13;;;;;;;;;;;;;;;20.50;42.22;102916.63;5057193;28;19924;-71
2023/05/27 05:43:38;;;;;;;;;;;;;;;20.49;42.33;102910.34;5052180;28;19912;-71
2023/05/27 05:46:03;;;;;;;;;;;;;;;20.49;42.29;102915.75;5056960;28;19928;-71
2023/05/27 05:48:28;;;;;;;;;;;;;;;20.49;42.57;102907.66;5028488;28;19924;-72
2023/05/27 05:50:53;;;;;;;;;;;;;;;20.47;42.15;102905.06;5041412;28;20367;-71
2023/05/27 05:53:19;;;;;;;;;;;;;;;20.48;42.43;102905.94;5054172;28;20617;-70
2023/05/27 05:55:44;;;;;;;;;;;;;;;20.48;42.52;102900.53;5052299;28;19917;-70
2023/05/27 05:58:09;;;;;;;;;;;;;;;20.48;42.35;102903.25;5033277;28;19917;-70
2023/05/27 06:00:35;;;;;;;;;;;;;;;20.47;42.22;102893.38;5049047;28;19913;-71
2023/05/27 06:03:00;;;;;;;;;;;;;;;20.46;42.18;102889.81;5040861;28;19917;-70
2023/05/27 06:05:26;;;;;;;;;;;;;;;20.47;42.23;102898.78;5050430;28;19913;-70
2023/05/27 06:07:51;;;;;;;;;;;;;;;20.46;42.27;102889.81;5040310;28;19921;-71
2023/05/27 06:10:17;;;;;;;;;;;;;;;20.46;42.22;102892.50;5050960;28;19941;-71
2023/05/27 06:12:42;;;;;;;;;;;;;;;20.46;42.19;102883.56;5057597;28;19917;-71
2023/05/27 06:15:07;;;;;;;;;;;;;;;20.46;42.49;102884.41;5054797;28;19939;-70
2023/05/27 06:17:34;;;;;;;;;;;;;;;20.46;42.50;102897.06;5020832;28;19964;-70
2023/05/27 06:19:59;;;;;;;;;;;;;;;20.45;42.44;102896.22;5037984;28;19936;-70
2023/05/27 06:22:24;;;;;;;;;;;;;;;20.46;42.43;102892.50;5031678;28;19913;-71
2023/05/27 06:24:50;;;;;;;;;;;;;;;20.46;42.29;102883.56;5048544;28;19913;-71
2023/05/27 06:27:15;;;;;;;;;;;;;;;20.46;42.38;102883.56;5029922;28;19921;-71
2023/05/27 06:29:40;;;;;;;;;;;;;;;20.46;42.46;102883.56;5053633;28;20373;-71
2023/05/27 06:32:05;;;;;;;;;;;;;;;20.47;42.47;102893.38;5040670;28;19921;-70
2023/05/27 06:34:31;;;;;;;;;;;;;;;20.45;42.38;102874.59;5054682;28;19913;-71
2023/05/27 06:36:56;;;;;;;;;;;;;;;20.46;42.51;102878.16;5033875;28;20325;-70
2023/05/27 06:39:22;;;;;;;;;;;;;;;20.46;42.30;102879.00;5042131;28;19912;-70
2023/05/27 06:41:47;;;;;;;;;;;;;;;20.45;42.21;102874.59;5042007;28;19920;-70
2023/05/27 06:44:12;;;;;;;;;;;;;;;20.47;42.59;102874.44;5033322;28;19924;-71
2023/05/27 06:46:38;;;;;;;;;;;;;;;20.46;42.37;102870.03;5028804;28;19921;-71
2023/05/27 06:49:03;;;;;;;;;;;;;;;20.45;42.24;102871.88;5048904;28;20290;-71
2023/05/27 06:51:28;;;;;;;;;;;;;;;20.46;42.60;102861.94;5050553;28;19935;-71
2023/05/27 06:53:53;;;;;;;;;;;;;;;20.45;42.25;102863.78;5050925;28;20347;-71
2023/05/27 06:56:18;;;;;;;;;;;;;;;20.47;42.39;102858.25;5051720;28;19913;-71
2023/05/27 06:58:44;;;;;;;;;;;;;;;20.46;42.29;102860.09;5032833;28;19984;-71
2023/05/27 07:01:10;;;;;;;;;;;;;;;20.47;42.61;102860.94;5051585;28;20373;-71
2023/05/27 07:03:35;;;;;;;;;;;;;;;20.47;42.20;102859.13;5043961;28;19913;-71
2023/05/27 07:06:00;;;;;;;;;;;;;;;20.47;42.53;102858.25;5055210;28;19917;-71
2023/05/27 07:08:25;;;;;;;;;;;;;;;20.47;42.33;102856.41;5057921;28;19949;-71
2023/05/27 07:10:50;;;;;;;;;;;;;;;20.46;42.25;102849.28;5048280;28;19956;-71
2023/05/27 07:13:16;;;;;;;;;;;;;;;20.47;42.48;102850.13;5036033;28;20003;-71
2023/05/27 07:15:41;;;;;;;;;;;;;;;20.47;42.58;102851.00;5051072;28;19917;-71
2023/05/27 07:18:06;;;;;;;;;;;;;;;20.48;42.34;102851.91;5049268;28;19932;-71
2023/05/27 07:20:32;;;;;;;;;;;;;;;20.49;42.55;102852.75;5051014;28;19924;-71
2023/05/27 07:22:57;;;;;;;;;;;;;;;20.49;42.53;102847.34;5032984;28;19920;-71
2023/05/27 07:25:23;;;;;;;;;;;;;;;20.49;42.28;102847.34;5048066;28;19924;-72
2023/05/27 07:27:48;;;;;;;;;;;;;;;20.49;42.43;102842.81;5045226;28;19917;-72
2023/05/27 07:30:13;;;;;;;;;;;;;;;20.50;42.50;102841.81;5039528;28;19925;-71
2023/05/27 07:32:38;;;;;;;;;;;;;;;20.50;42.32;102832.84;5051620;28;19917;-71
2023/05/27 07:35:04;;;;;;;;;;;;;;;20.51;42.43;102835.41;5050314;28;19921;-71
2023/05/27 07:37:30;;;;;;;;;;;;;;;20.50;42.47;102832.84;5036353;28;19919;-72
2023/05/27 07:39:55;;;;;;;;;;;;;;;20.51;42.46;102826.44;5049441;28;19924;-71
2023/05/27 07:42:20;;;;;;;;;;;;;;;20.51;42.39;102824.59;5056868;28;19913;-71
2023/05/27 07:44:45;;;;;;;;;;;;;;;20.51;42.52;102818.34;5053617;28;20358;-71
2023/05/27 07:47:10;;;;;;;;;;;;;;;20.53;42.46;102821.78;5038704;28;19943;-71
2023/05/27 07:49:36;;;;;;;;;;;;;;;20.53;42.20;102817.22;5036346;28;19923;-71
2023/05/27 07:52:01;;;;;;;;;;;;;;;20.53;42.33;102813.66;5053663;28;19920;-71
2023/05/27 07:54:26;;;;;;;;;;;;;;;20.53;42.57;102813.66;5053079;28;19964;-71
2023/05/27 07:56:52;;;;;;;;;;;;;;;20.53;42.38;102809.13;5042980;28;19958;-70
2023/05/27 07:59:17;;;;;;;;;;;;;;;20.54;42.37;102808.13;5045995;28;19997;-71
2023/05/27 08:01:42;;;;;;;;;;;;;;;20.55;42.52;102798.16;5058964;28;19919;-71
2023/05/27 08:04:07;;;;;;;;;;;;;;;20.54;42.33;102808.13;5057409;28;19967;-72
2023/05/27 08:06:33;;;;;;;;;;;;;;;20.55;42.31;102799.00;5053297;28;19948;-72
2023/05/27 08:08:58;;;;;;;;;;;;;;;20.56;42.45;102808.84;5059539;28;19932;-72
2023/05/27 08:11:23;;;;;;;;;;;;;;;20.56;42.63;102795.34;5053082;28;19921;-72
2023/05/27 08:13:48;;;;;;;;;;;;;;;20.57;42.68;102809.72;5035844;28;19959;-72
2023/05/27 08:16:13;;;;;;;;;;;;;;;20.57;42.55;102799.75;5052894;28;19928;-70
2023/05/27 08:18:39;;;;;;;;;;;;;;;20.57;42.57;102802.47;5054181;28;19917;-71
2023/05/27 08:21:04;;;;;;;;;;;;;;;20.57;42.55;102797.06;5040722;28;19913;-71
2023/05/27 08:23:29;;;;;;;;;;;;;;;20.57;42.69;102788.94;5053863;28;19954;-71
2023/05/27 08:25:55;;;;;;;;;;;;;;;20.58;42.68;102787.09;5053007;28;19921;-71
2023/05/27 08:28:21;;;;;;;;;;;;;;;20.58;42.93;102787.09;5055275;28;19917;-72
2023/05/27 08:30:46;;;;;;;;;;;;;;;20.58;42.74;102782.53;5058049;28;19981;-71
2023/05/27 08:33:11;;;;;;;;;;;;;;;20.59;42.66;102781.53;5047436;28;20003;-72
2023/05/27 08:35:37;;;;;;;;;;;;;;;20.59;43.04;102769.88;5058371;28;19913;-71
2023/05/27 08:38:02;;;;;;;;;;;;;;;20.59;42.97;102765.31;5052583;28;19919;-71
2023/05/27 08:40:27;;;;;;;;;;;;;;;20.61;42.90;102762.50;5033208;28;19917;-71
2023/05/27 08:42:52;;;;;;;;;;;;;;;20.60;42.74;102755.38;5054429;28;19920;-71
2023/05/27 08:45:17;;;;;;;;;;;;;;;20.60;42.93;102758.06;5056189;28;19940;-71
2023/05/27 08:47:42;;;;;;;;;;;;;;;20.60;42.77;102752.66;5040177;28;19928;-70
2023/05/27 08:50:08;;;;;;;;;;;;;;;20.59;42.98;102748.25;5053010;28;19920;-71
2023/05/27 08:52:33;;;;;;;;;;;;;;;20.59;42.83;102748.25;5053187;28;19917;-70
2023/05/27 08:55:00;;;;;;;;;;;;;;;20.58;43.25;102741.16;5046021;28;20032;-70
2023/05/27 08:57:27;;;;;;;;;;;;;;;20.58;42.84;102736.59;5041638;28;19991;-70
2023/05/27 08:59:52;;;;;;;;;;;;;;;20.57;42.95;102737.59;5034071;28;19920;-70
2023/05/27 09:02:18;;;;;;;;;;;;;;;20.58;42.94;102735.75;5044041;28;19913;-71
2023/05/27 09:04:44;;;;;;;;;;;;;;;20.58;42.86;102733.91;5053041;28;20011;-71
2023/05/27 09:07:09;;;;;;;;;;;;;;;20.59;42.96;102732.03;5048262;28;19917;-70
2023/05/27 09:09:34;;;;;;;;;;;;;;;20.59;43.13;102734.75;5037682;28;19920;-71
2023/05/27 09:12:03;;;;;;;;;;;;;;;20.60;42.77;102726.53;5051840;28;19936;-72
2023/05/27 09:14:29;;;;;;;;;;;;;;;20.60;42.87;102726.53;5049346;28;19917;-71
2023/05/27 09:16:54;;;;;;;;;;;;;;;20.62;43.11;102718.28;5053349;28;19928;-71
2023/05/27 09:19:20;;;;;;;;;;;;;;;20.62;42.90;102718.28;5036408;28;19913;-71
2023/05/27 09:21:45;;;;;;;;;;;;;;;20.62;43.18;102711.00;5040567;28;19984;-71
2023/05/27 09:24:10;;;;;;;;;;;;;;;20.63;42.98;102707.31;5036968;28;19972;-71
2023/05/27 09:26:37;;;;;;;;;;;;;;;20.64;43.26;102709.00;5052588;28;19923;-71
2023/05/27 09:29:05;;;;;;;;;;;;;;;20.64;43.10;102694.66;5047806;28;19916;-71
2023/05/27 09:31:31;;;;;;;;;;;;;;;20.65;42.94;102699.09;5055892;28;19924;-71
2023/05/27 09:33:56;;;;;;;;;;;;;;;20.66;42.97;102708.91;5051742;28;19913;-71
2023/05/27 09:36:24;;;;;;;;;;;;;;;20.66;43.26;102703.50;5038562;28;19967;-71
2023/05/27 09:38:50;;;;;;;;;;;;;;;20.66;43.25;102696.25;5050975;28;19973;-71
2023/05/27 09:41:22;;;;;;;;;;;;;;;20.67;43.27;102697.94;5050867;28;19993;-71
2023/05/27 09:43:53;;;;;;;;;;;;;;;20.68;43.27;102698.78;5021267;28;19913;-71
2023/05/27 09:46:18;;;;;;;;;;;;;;;20.68;43.25;102696.09;5022319;28;19960;-71
2023/05/27 09:48:43;;;;;;;;;;;;;;;20.69;43.37;102695.97;5039649;28;19917;-71
2023/05/27 09:51:09;;;;;;;;;;;;;;;20.70;43.44;102692.28;5037789;28;20020;-71
2023/05/27 09:53:34;;;;;;;;;;;;;;;20.70;43.54;102694.13;5043109;28;19996;-71
2023/05/27 09:55:59;;;;;;;;;;;;;;;20.71;43.55;102695.81;5054052;28;19917;-72
2023/05/27 09:58:24;;;;;;;;;;;;;;;20.71;43.25;102691.28;5039564;28;19956;-71
2023/05/27 10:00:50;;;;;;;;;;;;;;;20.71;43.31;102688.56;5052903;28;19916;-71
2023/05/27 10:03:16;;;;;;;;;;;;;;;20.72;43.37;102689.41;5055096;28;19921;-71
2023/05/27 10:05:42;;;;;;;;;;;;;;;20.73;43.38;102683.03;5050132;28;19913;-71
2023/05/27 10:08:07;;;;;;;;;;;;;;;20.75;43.59;102682.91;5050357;28;19913;-71
2023/05/27 10:10:32;;;;;;;;;;;;;;;20.75;43.62;102675.63;5038190;28;19920;-71
2023/05/27 10:12:58;;;;;;;;;;;;;;;20.76;43.66;102669.22;5033381;28;19944;-71
2023/05/27 10:15:32;;;;;;;;;;;;;;;20.77;43.58;102667.38;5045875;28;19980;-71
2023/05/27 10:17:58;;;;;;;;;;;;;;;20.77;43.54;102668.22;5049899;28;19926;-71
2023/05/27 10:20:27;;;;;;;;;;;;;;;20.79;43.50;102673.50;5045140;28;20058;-71
2023/05/27 10:22:52;;;;;;;;;;;;;;;20.79;43.52;102666.25;5047188;28;19948;-71
2023/05/27 10:25:17;;;;;;;;;;;;;;;20.80;43.64;102659.84;5040592;28;19913;-71
2023/05/27 10:27:43;;;;;;;;;;;;;;;20.82;43.38;102662.44;5049853;28;19960;-71
2023/05/27 10:30:09;;;;;;;;;;;;;;;20.82;43.75;102649.78;5041370;28;19912;-71
2023/05/27 10:32:41;;;;;;;;;;;;;;;20.84;43.63;102649.63;5037199;28;19917;-71
2023/05/27 10:35:07;;;;;;;;;;;;;;;20.85;43.74;102645.91;5032321;28;19913;-71
2023/05/27 10:37:33;;;;;;;;;;;;;;;20.86;43.80;102644.94;5037823;28;19913;-71
2023/05/27 10:39:59;;;;;;;;;;;;;;;20.88;43.87;102642.94;5032345;28;19913;-71
2023/05/27 10:42:24;;;;;;;;;;;;;;;20.89;43.85;102644.63;5031982;28;19952;-71
2023/05/27 10:44:50;;;;;;;;;;;;;;;20.90;43.70;102640.97;5049268;28;19960;-71
2023/05/27 10:47:15;;;;;;;;;;;;;;;20.91;43.55;102632.72;5034902;28;19917;-71
2023/05/27 10:49:41;;;;;;;;;;;;;;;20.93;43.87;102629.84;5052689;28;19942;-71
2023/05/27 10:52:10;;;;;;;;;;;;;;;20.95;43.63;102630.59;5038427;28;19913;-71
2023/05/27 10:54:36;;;;;;;;;;;;;;;20.96;43.92;102622.31;5033912;28;19913;-71
2023/05/27 10:57:01;;;;;;;;;;;;;;;20.97;43.97;102629.44;5054195;28;19912;-71
2023/05/27 10:59:32;;;;;;;;;;;;;;;20.99;44.00;102614.94;5042301;28;19917;-71
2023/05/27 11:01:58;;;;;;;;;;;;;;;21.01;43.99;102612.94;5022786;28;19951;-71
2023/05/27 11:04:23;;;;;;;;;;;;;;;21.02;43.99;102611.91;5052363;28;19917;-71
2023/05/27 11:06:59;;;;;;;;;;;;;;;21.03;44.03;102605.53;5049209;28;19921;-71
2023/05/27 11:09:24;;;;;;;;;;;;;;;21.05;44.12;102611.66;5047401;28;19917;-71
2023/05/27 11:11:49;;;;;;;;;;;;;;;21.06;43.88;102602.53;5049787;28;19913;-71
2023/05/27 11:14:15;;;;;;;;;;;;;;;21.07;43.88;102598.81;5052595;28;19916;-71
2023/05/27 11:16:40;;;;;;;;;;;;;;;21.08;43.87;102598.69;5045598;28;19928;-71
2023/05/27 11:19:05;;;;;;;;;;;;;;;21.11;44.10;102589.44;5053462;28;19913;-71
2023/05/27 11:21:30;;;;;;;;;;;;;;;21.12;44.10;102588.47;5050931;28;20008;-71
2023/05/27 11:23:56;;;;;;;;;;;;;;;21.13;44.04;102587.47;5054017;28;19911;-71
2023/05/27 11:26:25;;;;;;;;;;;;;;;21.14;43.85;102578.34;5055071;28;19917;-71
2023/05/27 11:28:57;;;;;;;;;;;;;;;21.15;44.27;102582.75;5040008;28;19913;-71
2023/05/27 11:31:26;;;;;;;;;;;;;;;21.17;44.24;102583.47;5049305;28;19917;-71
2023/05/27 11:33:51;;;;;;;;;;;;;;;21.19;44.18;102571.50;5047627;28;20428;-72
2023/05/27 11:36:17;;;;;;;;;;;;;;;21.20;44.04;102562.41;5051152;28;19917;-71
2023/05/27 11:38:50;;;;;;;;;;;;;;;21.22;44.26;102565.81;5033217;28;20359;-71
2023/05/27 11:41:15;;;;;;;;;;;;;;;21.23;43.97;102561.25;5036845;28;20008;-71
2023/05/27 11:43:47;;;;;;;;;;;;;;;21.24;44.27;102557.56;5049141;28;20324;-71
2023/05/27 11:46:12;;;;;;;;;;;;;;;21.26;44.07;102557.41;5050628;28;19920;-71
2023/05/27 11:48:37;;;;;;;;;;;;;;;21.27;44.38;102551.84;5051255;28;20457;-71
2023/05/27 11:51:02;;;;;;;;;;;;;;;21.29;44.13;102557.13;5055534;28;19916;-71
2023/05/27 11:53:30;;;;;;;;;;;;;;;21.30;44.33;102535.31;5055582;28;19917;-71
2023/05/27 11:55:55;;;;;;;;;;;;;;;21.32;44.40;102543.31;5049547;28;19920;-71
2023/05/27 11:58:20;;;;;;;;;;;;;;;21.34;44.31;102539.47;5040339;28;19917;-71
2023/05/27 12:00:45;;;;;;;;;;;;;;;21.35;44.11;102533.06;5033529;28;19928;-71
2023/05/27 12:03:11;;;;;;;;;;;;;;;21.37;44.20;102530.25;5048701;28;19937;-71
2023/05/27 12:05:36;;;;;;;;;;;;;;;21.39;44.51;102522.81;5050009;28;20279;-71
2023/05/27 12:08:01;;;;;;;;;;;;;;;21.39;44.38;102520.97;5031830;28;19913;-72
2023/05/27 12:10:26;;;;;;;;;;;;;;;21.41;44.32;102512.72;5044883;28;19917;-72
2023/05/27 12:12:51;;;;;;;;;;;;;;;21.43;44.21;102518.81;5032211;28;19913;-72
2023/05/27 12:15:17;;;;;;;;;;;;;;;21.43;44.41;102511.53;5054644;28;20021;-72
2023/05/27 12:17:42;;;;;;;;;;;;;;;21.46;44.50;102508.56;5045745;28;19925;-72
2023/05/27 12:20:08;;;;;;;;;;;;;;;21.47;44.33;102501.28;5061602;28;19947;-71
2023/05/27 12:22:33;;;;;;;;;;;;;;;21.49;44.39;102495.72;5052788;28;19955;-71
2023/05/27 12:24:58;;;;;;;;;;;;;;;21.50;44.73;102492.03;5024775;28;19963;-71
2023/05/27 12:27:24;;;;;;;;;;;;;;;21.52;44.73;102492.72;5056390;28;19975;-72